sensor_id;sensor_type;location;lat;lon;timestamp;P1;durP1;ratioP1;P2;durP2;ratioP2
7444;SDS011;3764;48.126;11.594;2023-03-31T00:01:59;10.10;;;6.32;;
7444;SDS011;3764;48.126;11.594;2023-03-31T00:04:27;6.55;;;5.43;;
7444;SDS011;3764;48.126;11.594;2023-03-31T00:06:56;10.23;;;6.65;;
7444;SDS011;3764;48.126;11.594;2023-03-31T00:09:23;8.15;;;5.80;;
7444;SDS011;3764;48.126;11.594;2023-03-31T00:11:55;8.10;;;5.50;;
7444;SDS011;3764;48.126;11.594;2023-03-31T00:14:22;7.97;;;5.68;;
7444;SDS011;3764;48.126;11.594;2023-03-31T00:16:49;7.45;;;6.20;;
7444;SDS011;3764;48.126;11.594;2023-03-31T00:19:16;9.68;;;5.85;;
7444;SDS011;3764;48.126;11.594;2023-03-31T00:21:44;8.73;;;5.78;;
7444;SDS011;3764;48.126;11.594;2023-03-31T00:24:12;9.00;;;5.97;;
7444;SDS011;3764;48.126;11.594;2023-03-31T00:26:40;11.70;;;5.70;;
7444;SDS011;3764;48.126;11.594;2023-03-31T00:29:10;9.73;;;5.97;;
7444;SDS011;3764;48.126;11.594;2023-03-31T00:31:38;11.57;;;6.90;;
7444;SDS011;3764;48.126;11.594;2023-03-31T00:34:06;8.57;;;6.18;;
7444;SDS011;3764;48.126;11.594;2023-03-31T00:36:33;6.50;;;5.63;;
7444;SDS011;3764;48.126;11.594;2023-03-31T00:39:11;9.85;;;7.13;;
7444;SDS011;3764;48.126;11.594;2023-03-31T00:41:40;9.75;;;5.85;;
7444;SDS011;3764;48.126;11.594;2023-03-31T00:44:10;7.78;;;5.88;;
7444;SDS011;3764;48.126;11.594;2023-03-31T00:46:40;8.57;;;6.15;;
7444;SDS011;3764;48.126;11.594;2023-03-31T00:49:14;10.55;;;6.65;;
7444;SDS011;3764;48.126;11.594;2023-03-31T00:51:46;7.53;;;6.10;;
7444;SDS011;3764;48.126;11.594;2023-03-31T00:54:14;8.82;;;6.57;;
7444;SDS011;3764;48.126;11.594;2023-03-31T00:56:44;8.15;;;5.97;;
7444;SDS011;3764;48.126;11.594;2023-03-31T00:59:14;7.63;;;6.10;;
7444;SDS011;3764;48.126;11.594;2023-03-31T01:01:42;7.63;;;6.03;;
7444;SDS011;3764;48.126;11.594;2023-03-31T01:04:14;9.10;;;5.88;;
7444;SDS011;3764;48.126;11.594;2023-03-31T01:06:49;9.65;;;6.35;;
7444;SDS011;3764;48.126;11.594;2023-03-31T01:09:21;8.95;;;7.00;;
7444;SDS011;3764;48.126;11.594;2023-03-31T01:11:50;7.47;;;5.80;;
7444;SDS011;3764;48.126;11.594;2023-03-31T01:14:18;10.20;;;6.50;;
7444;SDS011;3764;48.126;11.594;2023-03-31T01:16:46;8.18;;;5.75;;
7444;SDS011;3764;48.126;11.594;2023-03-31T01:19:17;11.82;;;6.35;;
7444;SDS011;3764;48.126;11.594;2023-03-31T01:22:12;7.90;;;6.13;;
7444;SDS011;3764;48.126;11.594;2023-03-31T01:25:09;11.38;;;6.47;;
7444;SDS011;3764;48.126;11.594;2023-03-31T01:31:12;8.68;;;6.20;;
7444;SDS011;3764;48.126;11.594;2023-03-31T01:33:59;11.93;;;6.68;;
7444;SDS011;3764;48.126;11.594;2023-03-31T01:40:29;8.05;;;5.78;;
7444;SDS011;3764;48.126;11.594;2023-03-31T01:43:13;10.02;;;6.15;;
7444;SDS011;3764;48.126;11.594;2023-03-31T01:45:49;10.35;;;7.20;;
7444;SDS011;3764;48.126;11.594;2023-03-31T01:48:26;9.50;;;6.28;;
7444;SDS011;3764;48.126;11.594;2023-03-31T01:51:01;7.78;;;6.50;;
7444;SDS011;3764;48.126;11.594;2023-03-31T01:53:33;6.57;;;5.93;;
7444;SDS011;3764;48.126;11.594;2023-03-31T01:56:09;9.30;;;6.20;;
7444;SDS011;3764;48.126;11.594;2023-03-31T01:58:42;7.78;;;5.82;;
7444;SDS011;3764;48.126;11.594;2023-03-31T02:01:17;13.57;;;6.03;;
7444;SDS011;3764;48.126;11.594;2023-03-31T02:03:52;7.68;;;6.05;;
7444;SDS011;3764;48.126;11.594;2023-03-31T02:06:22;8.48;;;6.28;;
7444;SDS011;3764;48.126;11.594;2023-03-31T02:08:54;6.40;;;5.80;;
7444;SDS011;3764;48.126;11.594;2023-03-31T02:11:25;8.13;;;6.35;;
7444;SDS011;3764;48.126;11.594;2023-03-31T02:13:56;9.02;;;6.80;;
7444;SDS011;3764;48.126;11.594;2023-03-31T02:16:26;7.97;;;6.20;;
7444;SDS011;3764;48.126;11.594;2023-03-31T02:18:57;8.40;;;6.28;;
7444;SDS011;3764;48.126;11.594;2023-03-31T02:21:27;10.77;;;5.55;;
7444;SDS011;3764;48.126;11.594;2023-03-31T02:23:57;10.15;;;6.50;;
7444;SDS011;3764;48.126;11.594;2023-03-31T02:26:27;8.55;;;6.32;;
7444;SDS011;3764;48.126;11.594;2023-03-31T02:28:56;9.18;;;6.57;;
7444;SDS011;3764;48.126;11.594;2023-03-31T02:31:26;10.82;;;6.35;;
7444;SDS011;3764;48.126;11.594;2023-03-31T02:34:00;9.57;;;6.38;;
7444;SDS011;3764;48.126;11.594;2023-03-31T02:36:29;10.07;;;6.07;;
7444;SDS011;3764;48.126;11.594;2023-03-31T02:38:58;8.93;;;6.22;;
7444;SDS011;3764;48.126;11.594;2023-03-31T02:41:32;8.63;;;5.93;;
7444;SDS011;3764;48.126;11.594;2023-03-31T02:43:59;6.50;;;5.45;;
7444;SDS011;3764;48.126;11.594;2023-03-31T02:46:26;6.70;;;5.22;;
7444;SDS011;3764;48.126;11.594;2023-03-31T02:48:55;7.88;;;5.55;;
7444;SDS011;3764;48.126;11.594;2023-03-31T02:51:31;10.95;;;6.30;;
7444;SDS011;3764;48.126;11.594;2023-03-31T02:54:28;7.18;;;4.97;;
7444;SDS011;3764;48.126;11.594;2023-03-31T03:00:16;9.30;;;6.03;;
7444;SDS011;3764;48.126;11.594;2023-03-31T03:02:52;6.50;;;5.90;;
7444;SDS011;3764;48.126;11.594;2023-03-31T03:05:34;6.47;;;4.95;;
7444;SDS011;3764;48.126;11.594;2023-03-31T03:08:14;10.82;;;5.60;;
7444;SDS011;3764;48.126;11.594;2023-03-31T03:10:53;9.73;;;6.13;;
7444;SDS011;3764;48.126;11.594;2023-03-31T03:13:29;7.75;;;5.63;;
7444;SDS011;3764;48.126;11.594;2023-03-31T03:16:03;6.82;;;5.75;;
7444;SDS011;3764;48.126;11.594;2023-03-31T03:18:34;9.13;;;6.30;;
7444;SDS011;3764;48.126;11.594;2023-03-31T03:21:01;8.95;;;6.15;;
7444;SDS011;3764;48.126;11.594;2023-03-31T03:23:28;9.05;;;6.53;;
7444;SDS011;3764;48.126;11.594;2023-03-31T03:25:55;7.07;;;6.35;;
7444;SDS011;3764;48.126;11.594;2023-03-31T03:28:22;6.88;;;6.18;;
7444;SDS011;3764;48.126;11.594;2023-03-31T03:30:51;9.35;;;6.30;;
7444;SDS011;3764;48.126;11.594;2023-03-31T03:33:18;11.43;;;6.95;;
7444;SDS011;3764;48.126;11.594;2023-03-31T03:35:49;10.52;;;6.65;;
7444;SDS011;3764;48.126;11.594;2023-03-31T03:38:16;11.15;;;6.60;;
7444;SDS011;3764;48.126;11.594;2023-03-31T03:40:43;7.47;;;6.30;;
7444;SDS011;3764;48.126;11.594;2023-03-31T03:43:11;8.82;;;6.30;;
7444;SDS011;3764;48.126;11.594;2023-03-31T03:45:38;7.30;;;6.20;;
7444;SDS011;3764;48.126;11.594;2023-03-31T03:48:06;10.50;;;6.68;;
7444;SDS011;3764;48.126;11.594;2023-03-31T03:50:34;7.35;;;6.30;;
7444;SDS011;3764;48.126;11.594;2023-03-31T03:53:02;8.77;;;6.20;;
7444;SDS011;3764;48.126;11.594;2023-03-31T03:55:30;8.98;;;6.03;;
7444;SDS011;3764;48.126;11.594;2023-03-31T03:57:57;11.05;;;7.07;;
7444;SDS011;3764;48.126;11.594;2023-03-31T04:00:24;10.70;;;5.78;;
7444;SDS011;3764;48.126;11.594;2023-03-31T04:02:51;9.25;;;7.32;;
7444;SDS011;3764;48.126;11.594;2023-03-31T04:05:19;11.52;;;6.75;;
7444;SDS011;3764;48.126;11.594;2023-03-31T04:07:46;13.25;;;6.32;;
7444;SDS011;3764;48.126;11.594;2023-03-31T04:10:13;12.25;;;6.72;;
7444;SDS011;3764;48.126;11.594;2023-03-31T04:12:40;9.57;;;6.03;;
7444;SDS011;3764;48.126;11.594;2023-03-31T04:15:08;8.88;;;6.57;;
7444;SDS011;3764;48.126;11.594;2023-03-31T04:17:35;11.20;;;7.35;;
7444;SDS011;3764;48.126;11.594;2023-03-31T04:20:03;9.85;;;6.07;;
7444;SDS011;3764;48.126;11.594;2023-03-31T04:22:34;14.27;;;7.13;;
7444;SDS011;3764;48.126;11.594;2023-03-31T04:25:06;9.20;;;7.35;;
7444;SDS011;3764;48.126;11.594;2023-03-31T04:27:39;7.15;;;6.40;;
7444;SDS011;3764;48.126;11.594;2023-03-31T04:30:11;9.55;;;6.13;;
7444;SDS011;3764;48.126;11.594;2023-03-31T04:32:47;12.77;;;7.88;;
7444;SDS011;3764;48.126;11.594;2023-03-31T04:35:15;8.32;;;6.28;;
7444;SDS011;3764;48.126;11.594;2023-03-31T04:37:46;9.20;;;6.95;;
7444;SDS011;3764;48.126;11.594;2023-03-31T04:40:14;7.32;;;6.50;;
7444;SDS011;3764;48.126;11.594;2023-03-31T04:42:42;11.60;;;7.68;;
7444;SDS011;3764;48.126;11.594;2023-03-31T04:45:12;12.27;;;7.45;;
7444;SDS011;3764;48.126;11.594;2023-03-31T04:47:39;8.00;;;6.93;;
7444;SDS011;3764;48.126;11.594;2023-03-31T04:50:06;13.90;;;7.35;;
7444;SDS011;3764;48.126;11.594;2023-03-31T04:52:34;10.85;;;7.07;;
7444;SDS011;3764;48.126;11.594;2023-03-31T04:55:04;8.80;;;6.78;;
7444;SDS011;3764;48.126;11.594;2023-03-31T04:57:32;12.80;;;8.15;;
7444;SDS011;3764;48.126;11.594;2023-03-31T04:59:59;8.52;;;7.63;;
7444;SDS011;3764;48.126;11.594;2023-03-31T05:02:26;10.15;;;6.80;;
7444;SDS011;3764;48.126;11.594;2023-03-31T05:04:53;12.93;;;8.30;;
7444;SDS011;3764;48.126;11.594;2023-03-31T05:07:21;11.07;;;8.07;;
7444;SDS011;3764;48.126;11.594;2023-03-31T05:09:48;15.55;;;8.00;;
7444;SDS011;3764;48.126;11.594;2023-03-31T05:12:16;23.20;;;8.38;;
7444;SDS011;3764;48.126;11.594;2023-03-31T05:14:43;15.35;;;9.10;;
7444;SDS011;3764;48.126;11.594;2023-03-31T05:17:10;12.07;;;8.70;;
7444;SDS011;3764;48.126;11.594;2023-03-31T05:19:37;18.85;;;10.25;;
7444;SDS011;3764;48.126;11.594;2023-03-31T05:22:04;11.82;;;7.78;;
7444;SDS011;3764;48.126;11.594;2023-03-31T05:24:31;9.90;;;7.72;;
7444;SDS011;3764;48.126;11.594;2023-03-31T05:26:59;11.07;;;7.57;;
7444;SDS011;3764;48.126;11.594;2023-03-31T05:29:27;11.93;;;8.10;;
7444;SDS011;3764;48.126;11.594;2023-03-31T05:31:55;15.50;;;9.25;;
7444;SDS011;3764;48.126;11.594;2023-03-31T05:34:22;11.73;;;8.82;;
7444;SDS011;3764;48.126;11.594;2023-03-31T05:36:49;14.02;;;8.23;;
7444;SDS011;3764;48.126;11.594;2023-03-31T05:39:18;11.57;;;9.10;;
7444;SDS011;3764;48.126;11.594;2023-03-31T05:41:45;11.68;;;9.05;;
7444;SDS011;3764;48.126;11.594;2023-03-31T05:44:12;12.27;;;8.82;;
7444;SDS011;3764;48.126;11.594;2023-03-31T05:46:41;18.85;;;8.52;;
7444;SDS011;3764;48.126;11.594;2023-03-31T05:49:08;15.05;;;8.90;;
7444;SDS011;3764;48.126;11.594;2023-03-31T05:51:35;14.68;;;8.50;;
7444;SDS011;3764;48.126;11.594;2023-03-31T05:54:02;14.52;;;9.68;;
7444;SDS011;3764;48.126;11.594;2023-03-31T05:56:30;13.35;;;9.13;;
7444;SDS011;3764;48.126;11.594;2023-03-31T05:58:58;16.15;;;9.18;;
7444;SDS011;3764;48.126;11.594;2023-03-31T06:01:26;14.25;;;9.25;;
7444;SDS011;3764;48.126;11.594;2023-03-31T06:03:55;18.13;;;9.50;;
7444;SDS011;3764;48.126;11.594;2023-03-31T06:06:22;12.82;;;9.52;;
7444;SDS011;3764;48.126;11.594;2023-03-31T06:08:50;17.02;;;9.60;;
7444;SDS011;3764;48.126;11.594;2023-03-31T06:11:19;12.68;;;8.80;;
7444;SDS011;3764;48.126;11.594;2023-03-31T06:13:47;19.00;;;8.88;;
7444;SDS011;3764;48.126;11.594;2023-03-31T06:16:15;12.15;;;8.25;;
7444;SDS011;3764;48.126;11.594;2023-03-31T06:18:43;17.02;;;9.55;;
7444;SDS011;3764;48.126;11.594;2023-03-31T06:21:12;12.38;;;8.95;;
7444;SDS011;3764;48.126;11.594;2023-03-31T06:23:42;10.30;;;7.68;;
7444;SDS011;3764;48.126;11.594;2023-03-31T06:26:10;7.80;;;7.00;;
7444;SDS011;3764;48.126;11.594;2023-03-31T06:28:38;9.43;;;7.50;;
7444;SDS011;3764;48.126;11.594;2023-03-31T06:31:06;16.60;;;8.60;;
7444;SDS011;3764;48.126;11.594;2023-03-31T06:33:36;12.50;;;8.05;;
7444;SDS011;3764;48.126;11.594;2023-03-31T06:36:04;10.52;;;8.65;;
7444;SDS011;3764;48.126;11.594;2023-03-31T06:38:33;11.27;;;8.25;;
7444;SDS011;3764;48.126;11.594;2023-03-31T06:41:02;13.48;;;7.80;;
7444;SDS011;3764;48.126;11.594;2023-03-31T06:43:30;12.02;;;8.02;;
7444;SDS011;3764;48.126;11.594;2023-03-31T06:45:57;11.63;;;7.93;;
7444;SDS011;3764;48.126;11.594;2023-03-31T06:48:24;10.35;;;7.57;;
7444;SDS011;3764;48.126;11.594;2023-03-31T06:50:53;8.20;;;7.20;;
7444;SDS011;3764;48.126;11.594;2023-03-31T06:53:20;10.63;;;7.13;;
7444;SDS011;3764;48.126;11.594;2023-03-31T06:55:49;10.82;;;7.10;;
7444;SDS011;3764;48.126;11.594;2023-03-31T06:58:16;11.00;;;7.30;;
7444;SDS011;3764;48.126;11.594;2023-03-31T07:00:43;8.20;;;6.35;;
7444;SDS011;3764;48.126;11.594;2023-03-31T07:03:11;9.38;;;7.45;;
7444;SDS011;3764;48.126;11.594;2023-03-31T07:05:38;9.70;;;6.55;;
7444;SDS011;3764;48.126;11.594;2023-03-31T07:08:05;8.85;;;6.60;;
7444;SDS011;3764;48.126;11.594;2023-03-31T07:10:33;13.95;;;7.45;;
7444;SDS011;3764;48.126;11.594;2023-03-31T07:13:01;12.20;;;6.65;;
7444;SDS011;3764;48.126;11.594;2023-03-31T07:15:28;9.05;;;6.50;;
7444;SDS011;3764;48.126;11.594;2023-03-31T07:17:55;8.30;;;6.80;;
7444;SDS011;3764;48.126;11.594;2023-03-31T07:20:26;7.78;;;6.90;;
7444;SDS011;3764;48.126;11.594;2023-03-31T07:22:53;8.65;;;6.97;;
7444;SDS011;3764;48.126;11.594;2023-03-31T07:25:20;13.73;;;7.57;;
7444;SDS011;3764;48.126;11.594;2023-03-31T07:27:48;13.55;;;7.13;;
7444;SDS011;3764;48.126;11.594;2023-03-31T07:30:17;15.63;;;6.43;;
7444;SDS011;3764;48.126;11.594;2023-03-31T07:32:45;10.15;;;7.63;;
7444;SDS011;3764;48.126;11.594;2023-03-31T07:35:12;8.70;;;7.35;;
7444;SDS011;3764;48.126;11.594;2023-03-31T07:37:41;10.07;;;7.60;;
7444;SDS011;3764;48.126;11.594;2023-03-31T07:40:10;11.73;;;7.47;;
7444;SDS011;3764;48.126;11.594;2023-03-31T07:42:40;13.20;;;8.35;;
7444;SDS011;3764;48.126;11.594;2023-03-31T07:45:08;12.63;;;7.82;;
7444;SDS011;3764;48.126;11.594;2023-03-31T07:47:37;11.10;;;7.65;;
7444;SDS011;3764;48.126;11.594;2023-03-31T07:50:05;11.43;;;7.97;;
7444;SDS011;3764;48.126;11.594;2023-03-31T07:52:33;10.52;;;8.00;;
7444;SDS011;3764;48.126;11.594;2023-03-31T07:55:00;9.90;;;8.30;;
7444;SDS011;3764;48.126;11.594;2023-03-31T07:57:28;13.55;;;10.00;;
7444;SDS011;3764;48.126;11.594;2023-03-31T07:59:55;11.07;;;8.40;;
7444;SDS011;3764;48.126;11.594;2023-03-31T08:02:22;11.65;;;7.88;;
7444;SDS011;3764;48.126;11.594;2023-03-31T08:04:50;9.30;;;8.30;;
7444;SDS011;3764;48.126;11.594;2023-03-31T08:07:18;14.80;;;8.55;;
7444;SDS011;3764;48.126;11.594;2023-03-31T08:09:45;11.63;;;8.25;;
7444;SDS011;3764;48.126;11.594;2023-03-31T08:12:13;9.60;;;8.00;;
7444;SDS011;3764;48.126;11.594;2023-03-31T08:14:40;16.60;;;8.40;;
7444;SDS011;3764;48.126;11.594;2023-03-31T08:17:08;17.10;;;12.02;;
7444;SDS011;3764;48.126;11.594;2023-03-31T08:19:35;14.68;;;10.02;;
7444;SDS011;3764;48.126;11.594;2023-03-31T08:22:04;18.42;;;8.95;;
7444;SDS011;3764;48.126;11.594;2023-03-31T08:24:31;9.50;;;7.65;;
7444;SDS011;3764;48.126;11.594;2023-03-31T08:26:58;11.05;;;7.93;;
7444;SDS011;3764;48.126;11.594;2023-03-31T08:29:25;12.57;;;8.25;;
7444;SDS011;3764;48.126;11.594;2023-03-31T08:31:52;12.18;;;8.55;;
7444;SDS011;3764;48.126;11.594;2023-03-31T08:34:20;12.40;;;9.50;;
7444;SDS011;3764;48.126;11.594;2023-03-31T08:36:47;14.07;;;9.55;;
7444;SDS011;3764;48.126;11.594;2023-03-31T08:39:15;13.45;;;8.23;;
7444;SDS011;3764;48.126;11.594;2023-03-31T08:41:48;9.63;;;8.55;;
7444;SDS011;3764;48.126;11.594;2023-03-31T08:44:23;12.93;;;8.43;;
7444;SDS011;3764;48.126;11.594;2023-03-31T08:46:55;9.57;;;6.38;;
7444;SDS011;3764;48.126;11.594;2023-03-31T08:49:25;10.88;;;8.00;;
7444;SDS011;3764;48.126;11.594;2023-03-31T08:51:54;14.93;;;7.50;;
7444;SDS011;3764;48.126;11.594;2023-03-31T08:54:28;10.35;;;6.30;;
7444;SDS011;3764;48.126;11.594;2023-03-31T08:56:58;8.75;;;5.88;;
7444;SDS011;3764;48.126;11.594;2023-03-31T08:59:28;6.07;;;5.07;;
7444;SDS011;3764;48.126;11.594;2023-03-31T09:01:59;9.00;;;5.05;;
7444;SDS011;3764;48.126;11.594;2023-03-31T09:07:31;6.35;;;4.07;;
7444;SDS011;3764;48.126;11.594;2023-03-31T09:10:09;4.82;;;4.22;;
7444;SDS011;3764;48.126;11.594;2023-03-31T09:12:53;6.40;;;4.18;;
7444;SDS011;3764;48.126;11.594;2023-03-31T09:15:25;9.48;;;3.80;;
7444;SDS011;3764;48.126;11.594;2023-03-31T09:17:54;4.90;;;4.28;;
7444;SDS011;3764;48.126;11.594;2023-03-31T09:20:28;6.70;;;4.70;;
7444;SDS011;3764;48.126;11.594;2023-03-31T09:23:00;7.63;;;4.55;;
7444;SDS011;3764;48.126;11.594;2023-03-31T09:25:36;4.90;;;4.30;;
7444;SDS011;3764;48.126;11.594;2023-03-31T09:28:06;6.20;;;5.10;;
7444;SDS011;3764;48.126;11.594;2023-03-31T09:30:39;6.22;;;4.30;;
7444;SDS011;3764;48.126;11.594;2023-03-31T09:33:09;5.82;;;5.00;;
7444;SDS011;3764;48.126;11.594;2023-03-31T09:35:40;8.50;;;5.20;;
7444;SDS011;3764;48.126;11.594;2023-03-31T09:38:08;9.93;;;5.00;;
7444;SDS011;3764;48.126;11.594;2023-03-31T09:40:38;6.50;;;4.40;;
7444;SDS011;3764;48.126;11.594;2023-03-31T09:43:06;7.38;;;5.20;;
7444;SDS011;3764;48.126;11.594;2023-03-31T09:45:38;4.72;;;4.32;;
7444;SDS011;3764;48.126;11.594;2023-03-31T09:48:06;6.63;;;3.95;;
7444;SDS011;3764;48.126;11.594;2023-03-31T09:50:41;6.18;;;4.00;;
7444;SDS011;3764;48.126;11.594;2023-03-31T09:53:11;5.38;;;4.45;;
7444;SDS011;3764;48.126;11.594;2023-03-31T09:55:48;4.68;;;4.18;;
7444;SDS011;3764;48.126;11.594;2023-03-31T09:58:21;5.97;;;5.38;;
7444;SDS011;3764;48.126;11.594;2023-03-31T10:00:57;7.90;;;4.20;;
7444;SDS011;3764;48.126;11.594;2023-03-31T10:03:26;5.88;;;4.70;;
7444;SDS011;3764;48.126;11.594;2023-03-31T10:06:00;4.15;;;3.75;;
7444;SDS011;3764;48.126;11.594;2023-03-31T10:08:36;5.22;;;3.97;;
7444;SDS011;3764;48.126;11.594;2023-03-31T10:11:09;6.60;;;4.65;;
7444;SDS011;3764;48.126;11.594;2023-03-31T10:13:41;8.50;;;4.78;;
7444;SDS011;3764;48.126;11.594;2023-03-31T10:16:11;3.75;;;3.33;;
7444;SDS011;3764;48.126;11.594;2023-03-31T10:18:40;5.57;;;3.70;;
7444;SDS011;3764;48.126;11.594;2023-03-31T10:21:14;4.03;;;3.63;;
7444;SDS011;3764;48.126;11.594;2023-03-31T10:23:46;6.05;;;4.00;;
7444;SDS011;3764;48.126;11.594;2023-03-31T10:26:17;4.28;;;3.80;;
7444;SDS011;3764;48.126;11.594;2023-03-31T10:28:46;11.43;;;3.13;;
7444;SDS011;3764;48.126;11.594;2023-03-31T10:31:16;7.45;;;3.95;;
7444;SDS011;3764;48.126;11.594;2023-03-31T10:33:46;5.85;;;3.75;;
7444;SDS011;3764;48.126;11.594;2023-03-31T10:36:17;5.68;;;4.20;;
7444;SDS011;3764;48.126;11.594;2023-03-31T10:38:48;6.85;;;4.40;;
7444;SDS011;3764;48.126;11.594;2023-03-31T10:41:19;5.70;;;4.05;;
7444;SDS011;3764;48.126;11.594;2023-03-31T10:43:49;5.15;;;4.50;;
7444;SDS011;3764;48.126;11.594;2023-03-31T10:46:17;10.73;;;4.05;;
7444;SDS011;3764;48.126;11.594;2023-03-31T10:48:46;6.07;;;3.60;;
7444;SDS011;3764;48.126;11.594;2023-03-31T10:51:14;4.18;;;3.78;;
7444;SDS011;3764;48.126;11.594;2023-03-31T10:53:45;5.63;;;3.42;;
7444;SDS011;3764;48.126;11.594;2023-03-31T10:56:26;4.10;;;3.70;;
7444;SDS011;3764;48.126;11.594;2023-03-31T11:01:58;5.25;;;4.35;;
7444;SDS011;3764;48.126;11.594;2023-03-31T11:04:46;4.60;;;4.00;;
7444;SDS011;3764;48.126;11.594;2023-03-31T11:07:33;5.00;;;4.50;;
7444;SDS011;3764;48.126;11.594;2023-03-31T11:10:12;8.48;;;4.45;;
7444;SDS011;3764;48.126;11.594;2023-03-31T11:12:57;6.75;;;4.07;;
7444;SDS011;3764;48.126;11.594;2023-03-31T11:15:29;5.72;;;4.13;;
7444;SDS011;3764;48.126;11.594;2023-03-31T11:18:17;5.72;;;4.40;;
7444;SDS011;3764;48.126;11.594;2023-03-31T11:20:58;5.55;;;4.43;;
7444;SDS011;3764;48.126;11.594;2023-03-31T11:23:34;7.70;;;4.63;;
7444;SDS011;3764;48.126;11.594;2023-03-31T11:26:08;5.63;;;4.78;;
7444;SDS011;3764;48.126;11.594;2023-03-31T11:28:43;7.53;;;2.90;;
7444;SDS011;3764;48.126;11.594;2023-03-31T11:31:30;3.58;;;1.63;;
7444;SDS011;3764;48.126;11.594;2023-03-31T11:34:09;2.97;;;1.90;;
7444;SDS011;3764;48.126;11.594;2023-03-31T11:36:50;1.95;;;1.38;;
7444;SDS011;3764;48.126;11.594;2023-03-31T11:39:40;5.55;;;2.13;;
7444;SDS011;3764;48.126;11.594;2023-03-31T11:42:15;2.70;;;1.50;;
7444;SDS011;3764;48.126;11.594;2023-03-31T11:44:50;1.70;;;1.52;;
7444;SDS011;3764;48.126;11.594;2023-03-31T11:47:21;4.32;;;1.67;;
7444;SDS011;3764;48.126;11.594;2023-03-31T11:49:52;3.72;;;1.85;;
7444;SDS011;3764;48.126;11.594;2023-03-31T11:52:21;5.18;;;1.92;;
7444;SDS011;3764;48.126;11.594;2023-03-31T11:54:53;2.40;;;1.60;;
7444;SDS011;3764;48.126;11.594;2023-03-31T11:57:26;2.17;;;1.50;;
7444;SDS011;3764;48.126;11.594;2023-03-31T11:59:59;2.55;;;1.55;;
7444;SDS011;3764;48.126;11.594;2023-03-31T12:02:35;2.58;;;1.48;;
7444;SDS011;3764;48.126;11.594;2023-03-31T12:05:09;4.78;;;1.90;;
7444;SDS011;3764;48.126;11.594;2023-03-31T12:07:38;2.85;;;1.60;;
7444;SDS011;3764;48.126;11.594;2023-03-31T12:10:15;5.43;;;1.80;;
7444;SDS011;3764;48.126;11.594;2023-03-31T12:12:46;2.65;;;1.65;;
7444;SDS011;3764;48.126;11.594;2023-03-31T12:15:20;4.20;;;1.83;;
7444;SDS011;3764;48.126;11.594;2023-03-31T12:17:52;3.28;;;1.75;;
7444;SDS011;3764;48.126;11.594;2023-03-31T12:20:27;2.70;;;1.60;;
7444;SDS011;3764;48.126;11.594;2023-03-31T12:22:59;2.03;;;1.63;;
7444;SDS011;3764;48.126;11.594;2023-03-31T12:25:32;3.50;;;1.90;;
7444;SDS011;3764;48.126;11.594;2023-03-31T12:28:07;3.22;;;2.10;;
7444;SDS011;3764;48.126;11.594;2023-03-31T12:30:38;3.65;;;2.15;;
7444;SDS011;3764;48.126;11.594;2023-03-31T12:33:11;3.70;;;2.28;;
7444;SDS011;3764;48.126;11.594;2023-03-31T12:35:46;3.38;;;2.85;;
7444;SDS011;3764;48.126;11.594;2023-03-31T12:38:29;4.90;;;1.90;;
7444;SDS011;3764;48.126;11.594;2023-03-31T12:41:13;2.85;;;1.60;;
7444;SDS011;3764;48.126;11.594;2023-03-31T12:46:54;6.00;;;2.20;;
7444;SDS011;3764;48.126;11.594;2023-03-31T12:52:21;3.65;;;2.70;;
7444;SDS011;3764;48.126;11.594;2023-03-31T12:55:01;2.67;;;2.13;;
7444;SDS011;3764;48.126;11.594;2023-03-31T12:57:56;2.45;;;2.20;;
7444;SDS011;3764;48.126;11.594;2023-03-31T13:01:02;4.70;;;2.55;;
7444;SDS011;3764;48.126;11.594;2023-03-31T13:03:37;3.67;;;2.35;;
7444;SDS011;3764;48.126;11.594;2023-03-31T13:06:08;5.07;;;2.10;;
7444;SDS011;3764;48.126;11.594;2023-03-31T13:08:50;1.92;;;1.70;;
7444;SDS011;3764;48.126;11.594;2023-03-31T13:11:19;2.30;;;1.88;;
7444;SDS011;3764;48.126;11.594;2023-03-31T13:13:56;2.60;;;1.55;;
7444;SDS011;3764;48.126;11.594;2023-03-31T13:16:26;3.20;;;1.38;;
7444;SDS011;3764;48.126;11.594;2023-03-31T13:18:55;3.38;;;1.02;;
7444;SDS011;3764;48.126;11.594;2023-03-31T13:21:22;2.58;;;1.38;;
7444;SDS011;3764;48.126;11.594;2023-03-31T13:23:50;2.55;;;1.30;;
7444;SDS011;3764;48.126;11.594;2023-03-31T13:26:34;1.50;;;0.93;;
7444;SDS011;3764;48.126;11.594;2023-03-31T13:29:20;4.30;;;0.88;;
7444;SDS011;3764;48.126;11.594;2023-03-31T13:34:58;4.88;;;0.93;;
7444;SDS011;3764;48.126;11.594;2023-03-31T13:37:38;2.08;;;0.80;;
7444;SDS011;3764;48.126;11.594;2023-03-31T13:40:37;1.20;;;0.85;;
7444;SDS011;3764;48.126;11.594;2023-03-31T13:43:26;2.80;;;1.20;;
7444;SDS011;3764;48.126;11.594;2023-03-31T13:46:18;2.78;;;1.23;;
7444;SDS011;3764;48.126;11.594;2023-03-31T13:49:15;2.70;;;1.13;;
7444;SDS011;3764;48.126;11.594;2023-03-31T13:52:00;8.95;;;1.05;;
7444;SDS011;3764;48.126;11.594;2023-03-31T13:54:44;2.50;;;1.10;;
7444;SDS011;3764;48.126;11.594;2023-03-31T13:57:51;2.03;;;1.05;;
7444;SDS011;3764;48.126;11.594;2023-03-31T14:00:45;4.07;;;1.48;;
7444;SDS011;3764;48.126;11.594;2023-03-31T14:03:26;1.90;;;1.40;;
7444;SDS011;3764;48.126;11.594;2023-03-31T14:06:03;2.17;;;1.50;;
7444;SDS011;3764;48.126;11.594;2023-03-31T14:08:41;2.67;;;1.27;;
7444;SDS011;3764;48.126;11.594;2023-03-31T14:11:16;3.70;;;1.30;;
7444;SDS011;3764;48.126;11.594;2023-03-31T14:13:57;4.10;;;1.52;;
7444;SDS011;3764;48.126;11.594;2023-03-31T14:16:25;3.22;;;1.42;;
7444;SDS011;3764;48.126;11.594;2023-03-31T14:18:56;2.70;;;1.60;;
7444;SDS011;3764;48.126;11.594;2023-03-31T14:21:30;4.00;;;1.45;;
7444;SDS011;3764;48.126;11.594;2023-03-31T14:24:07;4.20;;;1.60;;
7444;SDS011;3764;48.126;11.594;2023-03-31T14:26:45;2.15;;;1.52;;
7444;SDS011;3764;48.126;11.594;2023-03-31T14:29:21;2.83;;;1.50;;
7444;SDS011;3764;48.126;11.594;2023-03-31T14:31:55;3.13;;;1.63;;
7444;SDS011;3764;48.126;11.594;2023-03-31T14:34:36;3.78;;;1.98;;
7444;SDS011;3764;48.126;11.594;2023-03-31T14:37:12;2.13;;;1.50;;
7444;SDS011;3764;48.126;11.594;2023-03-31T14:39:43;3.55;;;1.73;;
7444;SDS011;3764;48.126;11.594;2023-03-31T14:42:13;2.70;;;1.50;;
7444;SDS011;3764;48.126;11.594;2023-03-31T14:44:42;11.13;;;1.65;;
7444;SDS011;3764;48.126;11.594;2023-03-31T14:47:15;3.28;;;1.30;;
7444;SDS011;3764;48.126;11.594;2023-03-31T14:49:46;1.20;;;0.85;;
7444;SDS011;3764;48.126;11.594;2023-03-31T14:52:24;1.20;;;0.85;;
7444;SDS011;3764;48.126;11.594;2023-03-31T14:54:57;2.55;;;0.85;;
7444;SDS011;3764;48.126;11.594;2023-03-31T14:57:26;1.50;;;0.70;;
7444;SDS011;3764;48.126;11.594;2023-03-31T14:59:55;1.23;;;0.70;;
7444;SDS011;3764;48.126;11.594;2023-03-31T15:02:27;2.25;;;0.90;;
7444;SDS011;3764;48.126;11.594;2023-03-31T15:05:00;1.90;;;0.80;;
7444;SDS011;3764;48.126;11.594;2023-03-31T15:07:31;2.38;;;0.90;;
7444;SDS011;3764;48.126;11.594;2023-03-31T15:10:00;5.60;;;0.90;;
7444;SDS011;3764;48.126;11.594;2023-03-31T15:12:28;1.85;;;0.80;;
7444;SDS011;3764;48.126;11.594;2023-03-31T15:14:57;1.77;;;0.82;;
7444;SDS011;3764;48.126;11.594;2023-03-31T15:17:29;3.58;;;1.20;;
7444;SDS011;3764;48.126;11.594;2023-03-31T15:20:16;1.50;;;1.00;;
7444;SDS011;3764;48.126;11.594;2023-03-31T15:22:52;1.27;;;0.90;;
7444;SDS011;3764;48.126;11.594;2023-03-31T15:25:21;2.22;;;1.10;;
7444;SDS011;3764;48.126;11.594;2023-03-31T15:27:52;1.95;;;0.95;;
7444;SDS011;3764;48.126;11.594;2023-03-31T15:30:22;2.53;;;0.80;;
7444;SDS011;3764;48.126;11.594;2023-03-31T15:32:52;2.05;;;1.30;;
7444;SDS011;3764;48.126;11.594;2023-03-31T15:35:20;3.55;;;1.30;;
7444;SDS011;3764;48.126;11.594;2023-03-31T15:37:50;3.63;;;1.00;;
7444;SDS011;3764;48.126;11.594;2023-03-31T15:40:23;2.65;;;1.42;;
7444;SDS011;3764;48.126;11.594;2023-03-31T15:42:53;3.08;;;1.80;;
7444;SDS011;3764;48.126;11.594;2023-03-31T15:45:35;4.93;;;1.30;;
7444;SDS011;3764;48.126;11.594;2023-03-31T15:50:42;4.97;;;3.45;;
7444;SDS011;3764;48.126;11.594;2023-03-31T15:53:20;2.63;;;1.10;;
7444;SDS011;3764;48.126;11.594;2023-03-31T15:55:54;3.72;;;1.40;;